New London, WI (54961)

9:45 AM CST on February 19, 2018 (GMT -0600)
northport | | Change Station
Active Advisory: Winter Weather Advisory

Elev 912 ft 44.42 °N, 88.80 °W | Updated 22 seconds ago

Mostly Cloudy
Mostly Cloudy
37.2 °F
Feels Like 35 °F
N
3.2
Wind Variable Wind from NNW

Today
High -- | Low -- °F
--% Chance of Precip.
Yesterday
High -- | Low -- °F
Precip. -- in
Pressure 29.84 in
Visibility 10.0 miles
Clouds Mostly Cloudy 6000 ft
Windchill 35 °F
Dew Point 30 °F
Humidity 75%
Rainfall 0.00 in
Snow Depth Not available.
6:48 AM 5:29 PM
Waxing Crescent, 14% visible
METAR KATW 191445Z 00000KT 10SM BKN060 02/M02 A2984
Pressure 29.84 in
Visibility 10.0 miles
Clouds Mostly Cloudy 6000 ft
Windchill 35 °F
Dew Point 30 °F
Humidity 75%
Rainfall 0.00 in
Snow Depth Not available.
6:48 AM 5:29 PM
Waxing Crescent, 14% visible
METAR KATW 191445Z 00000KT 10SM BKN060 02/M02 A2984

Get Your Daily Forecast Email!

Thanks for signing up!

Be on the lookout for a verification email in your inbox.

You'll start receiving severe weather alerts in your inbox..

×

10-Day Weather Forecast

Almanac

Astronomy

Feb. 19, 2018 Rise Set
Actual Time
Civil Twilight
Nautical Twilight
Astronomical Twilight
Moon
Length of Visible Light
Length of Day
Tomorrow will be .
, % of the Moon is Illuminated

Today's Extremes

State Highs State Lows

Community

WunderPhotos

Category 6

Welcome to Category 6. This is the collective home for Weather Underground's featured writeups by Dr. Jeff Masters (right), Bob Henson (left), Chris Burt, and other regular contributors.

Nearby

Air Quality

  Air Quality AQ Index Pollutant
Not available.

Snow Depth

Station Depth Elevation

Earthquake Activity

City Distance Mag. Time & Date
Minimum magnitude displayed is 2.5.

Coastal Water Temperatures

Place Temperature

Stations

Nearby Weather Stations

Station Location Temp. Windchill Dew Point Humidity Wind Precip. Elev Updated Type
                   

Watches & Warnings

Winter Weather Advisory
Issued: 7:39 AM CST Feb. 19, 2018 – National Weather Service

... Winter Weather Advisory remains in effect until 6 PM CST
Tuesday...

* what... light freezing rain and freezing drizzle is expected
through most of the period. Total ice accumulations of a
quarter to a third of an inch are possible, though they will
occur over a prolonged period of time.

* Where... portions of central and northeast Wisconsin.

* When... from 9 am this morning to 6 PM CST Tuesday.

* Additional details... the ice will result in difficult travel
conditions, especially for the commute this evening and again
Tuesday morning.

Precautionary/preparedness actions...

A Winter Weather Advisory means that periods of freezing rain
will cause travel difficulties. Be prepared for slippery roads and
limited visibilities, and use caution while driving. The latest
Road conditions for the state you are calling from can be obtained
by calling 5 1 1.